createdAt,value
2019-02-19T00:02:27.055Z,1.32
2019-02-19T00:05:17.586Z,1.37
2019-02-19T00:08:07.044Z,1.49
2019-02-19T00:10:56.957Z,1.60
2019-02-19T00:13:46.326Z,1.64
2019-02-19T00:16:36.151Z,1.74
2019-02-19T00:19:25.403Z,1.72
2019-02-19T00:22:14.838Z,1.85
2019-02-19T00:25:04.217Z,1.64
2019-02-19T00:27:53.711Z,1.65
2019-02-19T00:30:43.400Z,1.74
2019-02-19T00:33:33.034Z,1.82
2019-02-19T00:36:22.225Z,1.80
2019-02-19T00:39:12.477Z,1.83
2019-02-19T00:42:02.039Z,1.76
2019-02-19T00:44:52.059Z,1.67
2019-02-19T00:47:41.329Z,1.74
2019-02-19T00:50:30.628Z,1.76
2019-02-19T00:53:20.693Z,1.75
2019-02-19T00:56:10.357Z,1.69
2019-02-19T00:58:59.912Z,1.38
2019-02-19T01:01:49.713Z,1.48
2019-02-19T01:04:39.989Z,1.55
2019-02-19T01:07:29.801Z,1.59
2019-02-19T01:10:19.417Z,1.59
2019-02-19T01:13:11.774Z,1.59
2019-02-19T01:16:01.107Z,1.54
2019-02-19T01:18:50.455Z,1.45
2019-02-19T01:21:40.423Z,1.38
2019-02-19T01:24:29.795Z,1.39
2019-02-19T01:27:19.546Z,1.37
2019-02-19T01:30:11.484Z,1.48
2019-02-19T01:33:01.227Z,1.30
2019-02-19T01:35:50.497Z,1.29
2019-02-19T01:38:40.291Z,1.27
2019-02-19T01:41:30.202Z,1.23
2019-02-19T01:44:19.751Z,1.17
2019-02-19T01:47:17.154Z,1.12
2019-02-19T01:50:07.461Z,1.11
2019-02-19T01:52:56.581Z,0.99
2019-02-19T01:55:46.229Z,0.94
2019-02-19T01:58:35.993Z,0.95
2019-02-19T02:01:25.242Z,0.96
2019-02-19T02:04:16.262Z,0.91
2019-02-19T02:07:05.999Z,0.85
2019-02-19T02:09:55.416Z,0.86
2019-02-19T02:12:44.645Z,0.89
2019-02-19T02:15:42.298Z,0.87
2019-02-19T02:18:26.018Z,0.94
2019-02-19T02:21:15.792Z,0.95
2019-02-19T02:24:08.060Z,1.01
2019-02-19T02:26:57.614Z,1.00
2019-02-19T02:29:46.988Z,0.95
2019-02-19T02:32:36.839Z,0.77
2019-02-19T02:35:25.886Z,0.71
2019-02-19T02:38:15.313Z,0.73
2019-02-19T02:41:04.550Z,0.82
2019-02-19T02:43:54.260Z,0.81
2019-02-19T02:46:43.603Z,0.79
2019-02-19T02:49:33.089Z,0.87
2019-02-19T02:52:22.744Z,0.74
2019-02-19T02:55:12.221Z,0.84
2019-02-19T02:58:01.472Z,0.49
2019-02-19T03:00:51.064Z,0.51
2019-02-19T03:03:41.008Z,0.38
2019-02-19T03:06:41.666Z,0.23
2019-02-19T03:09:31.055Z,0.33
2019-02-19T03:12:20.505Z,0.12
2019-02-19T03:15:10.966Z,0.32
2019-02-19T03:18:00.214Z,0.30
2019-02-19T03:20:49.844Z,0.37
2019-02-19T03:23:39.457Z,0.28
2019-02-19T03:26:29.069Z,0.34
2019-02-19T03:29:18.470Z,0.33
2019-02-19T03:32:08.406Z,0.19
2019-02-19T03:34:57.537Z,0.14
2019-02-19T03:37:47.623Z,0.00
2019-02-19T03:40:37.091Z,-0.10
2019-02-19T03:43:26.206Z,0.00
2019-02-19T03:46:15.443Z,0.11
2019-02-19T03:49:06.720Z,0.14
2019-02-19T03:51:56.322Z,0.15
2019-02-19T03:54:45.588Z,0.03
2019-02-19T03:57:35.137Z,0.01
2019-02-19T04:00:24.556Z,0.09
2019-02-19T04:03:16.839Z,0.20
2019-02-19T04:06:06.050Z,0.14
2019-02-19T04:08:55.433Z,0.07
2019-02-19T04:11:44.850Z,0.04
2019-02-19T04:14:34.282Z,0.07
2019-02-19T04:17:23.698Z,0.13
2019-02-19T04:20:13.867Z,0.12
2019-02-19T04:23:03.150Z,0.10
2019-02-19T04:25:52.266Z,0.08
2019-02-19T04:28:41.642Z,0.15
2019-02-19T04:31:31.825Z,0.19
2019-02-19T04:34:21.556Z,0.12
2019-02-19T04:37:10.834Z,0.14
2019-02-19T04:40:00.665Z,0.00
2019-02-19T04:42:50.059Z,0.07
2019-02-19T04:45:39.925Z,-0.02
2019-02-19T04:48:29.609Z,-0.14
2019-02-19T04:51:18.723Z,-0.09
2019-02-19T04:54:10.829Z,-0.11
2019-02-19T04:57:00.740Z,-0.08
2019-02-19T05:00:01.735Z,-0.09
2019-02-19T05:02:51.644Z,-0.10
2019-02-19T05:05:41.415Z,-0.03
2019-02-19T05:08:31.377Z,-0.01
2019-02-19T05:11:20.833Z,-0.09
2019-02-19T05:14:10.305Z,-0.09
2019-02-19T05:16:59.563Z,-0.05
2019-02-19T05:19:49.685Z,0.03
2019-02-19T05:22:39.183Z,0.10
2019-02-19T05:25:28.870Z,-0.07
2019-02-19T05:28:18.532Z,-0.09
2019-02-19T05:31:07.773Z,-0.03
2019-02-19T05:33:57.790Z,-0.01
2019-02-19T05:36:47.102Z,0.10
2019-02-19T05:39:36.899Z,-0.05
2019-02-19T05:42:26.192Z,0.00
2019-02-19T05:45:16.022Z,-0.01
2019-02-19T05:48:05.504Z,0.07
2019-02-19T05:50:54.936Z,0.11
2019-02-19T05:53:44.957Z,0.16
2019-02-19T05:56:34.723Z,0.16
2019-02-19T05:59:24.331Z,0.18
2019-02-19T06:02:14.272Z,0.04
2019-02-19T06:05:05.751Z,-0.01
2019-02-19T06:07:54.652Z,0.02
2019-02-19T06:10:44.427Z,0.00
2019-02-19T06:13:34.350Z,-0.03
2019-02-19T06:16:23.588Z,-0.12
2019-02-19T06:19:13.356Z,-0.13
2019-02-19T06:22:02.595Z,-0.17
2019-02-19T06:24:52.482Z,-0.31
2019-02-19T06:27:41.943Z,-0.34
2019-02-19T06:30:31.442Z,-0.37
2019-02-19T06:33:21.044Z,-0.28
2019-02-19T06:36:10.305Z,-0.15
2019-02-19T06:39:00.397Z,-0.14
2019-02-19T06:41:50.125Z,-0.06
2019-02-19T06:44:39.345Z,-0.01
2019-02-19T06:47:28.781Z,-0.08
2019-02-19T06:50:18.053Z,-0.34
2019-02-19T06:53:07.579Z,-0.22
2019-02-19T06:55:57.319Z,-0.14
2019-02-19T06:58:46.702Z,0.02
2019-02-19T07:01:53.703Z,0.14
2019-02-19T07:04:48.302Z,0.22
2019-02-19T07:07:38.063Z,0.20
2019-02-19T07:10:27.284Z,0.26
2019-02-19T07:13:16.734Z,0.31
2019-02-19T07:16:06.748Z,0.37
2019-02-19T07:18:55.931Z,0.44
2019-02-19T07:21:45.141Z,0.34
2019-02-19T07:24:35.052Z,0.29
2019-02-19T07:27:24.433Z,0.32
2019-02-19T07:30:14.460Z,0.44
2019-02-19T07:33:03.618Z,0.37
2019-02-19T07:35:53.389Z,0.51
2019-02-19T07:38:42.848Z,0.65
2019-02-19T07:41:34.220Z,0.75
2019-02-19T07:44:23.760Z,0.92
2019-02-19T07:47:13.105Z,0.97
2019-02-19T07:50:13.642Z,1.31
2019-02-19T07:53:03.641Z,1.33
2019-02-19T07:55:52.935Z,1.48
2019-02-19T07:58:42.741Z,1.53
2019-02-19T08:01:32.374Z,1.69
2019-02-19T08:04:21.707Z,2.01
2019-02-19T08:07:11.877Z,2.51
2019-02-19T08:10:01.883Z,3.16
2019-02-19T08:12:51.080Z,4.07
2019-02-19T08:15:40.800Z,4.38
2019-02-19T08:18:30.709Z,4.73
2019-02-19T08:21:20.932Z,5.05
2019-02-19T08:24:10.262Z,5.20
2019-02-19T08:26:59.627Z,5.34
2019-02-19T08:29:49.042Z,5.45
2019-02-19T08:32:39.128Z,5.61
2019-02-19T08:35:28.249Z,6.04
2019-02-19T08:38:17.923Z,6.18
2019-02-19T08:41:07.190Z,6.27
2019-02-19T08:43:56.797Z,6.41
2019-02-19T08:46:46.116Z,6.59
2019-02-19T08:49:35.780Z,6.71
2019-02-19T08:52:25.177Z,6.89
2019-02-19T08:55:15.100Z,6.94
2019-02-19T08:58:04.489Z,7.17
2019-02-19T09:00:54.192Z,7.45
2019-02-19T09:03:43.797Z,7.63
2019-02-19T09:06:33.011Z,7.85
2019-02-19T09:09:22.455Z,7.97
2019-02-19T09:12:11.691Z,8.05
2019-02-19T09:15:00.899Z,8.48
2019-02-19T09:17:52.202Z,8.40
2019-02-19T09:20:43.275Z,8.75
2019-02-19T09:23:32.843Z,8.97
2019-02-19T09:26:22.405Z,9.05
2019-02-19T09:29:12.450Z,8.99
2019-02-19T09:32:01.849Z,9.36
2019-02-19T09:34:52.667Z,9.34
2019-02-19T09:37:42.927Z,9.40
2019-02-19T09:40:33.531Z,9.18
2019-02-19T09:43:23.070Z,9.26
2019-02-19T09:46:12.701Z,9.04
2019-02-19T09:49:02.148Z,9.26
2019-02-19T09:51:51.571Z,9.31
2019-02-19T09:54:41.296Z,9.42
2019-02-19T09:57:32.610Z,9.47
2019-02-19T10:00:21.117Z,9.69
2019-02-19T10:03:11.085Z,10.07
2019-02-19T10:06:01.084Z,10.31
2019-02-19T10:08:50.261Z,10.16
2019-02-19T10:11:43.259Z,9.98
2019-02-19T10:14:32.373Z,9.98
2019-02-19T10:17:21.605Z,10.33
2019-02-19T10:20:10.819Z,10.37
2019-02-19T10:23:00.461Z,10.75
2019-02-19T10:25:50.065Z,10.86
2019-02-19T10:28:39.671Z,10.81
2019-02-19T10:31:29.555Z,10.57
2019-02-19T10:34:19.364Z,10.76
2019-02-19T10:37:08.805Z,11.22
2019-02-19T10:39:58.312Z,11.43
2019-02-19T10:42:47.506Z,11.47
2019-02-19T10:45:37.338Z,11.78
2019-02-19T10:48:26.630Z,12.54
2019-02-19T10:51:16.006Z,12.52
2019-02-19T10:54:07.951Z,11.63
2019-02-19T10:56:57.788Z,12.17
2019-02-19T10:59:47.219Z,12.56
2019-02-19T11:02:36.960Z,12.75
2019-02-19T11:05:26.444Z,12.72
2019-02-19T11:08:16.082Z,12.81
2019-02-19T11:11:05.695Z,12.88
2019-02-19T11:13:54.776Z,12.98
2019-02-19T11:16:44.493Z,13.38
2019-02-19T11:19:33.740Z,12.83
2019-02-19T11:22:23.261Z,13.22
2019-02-19T11:25:13.293Z,13.00
2019-02-19T11:28:03.318Z,12.38
2019-02-19T11:30:52.901Z,12.65
2019-02-19T11:33:42.321Z,13.20
2019-02-19T11:36:32.639Z,13.46
2019-02-19T11:42:46.823Z,13.74
2019-02-19T11:45:36.324Z,14.01
2019-02-19T11:48:26.155Z,14.70
2019-02-19T11:51:15.655Z,13.89
2019-02-19T11:54:07.993Z,14.49
2019-02-19T11:56:57.346Z,14.81
2019-02-19T11:59:46.802Z,14.17
2019-02-19T12:02:35.992Z,13.55
2019-02-19T12:05:26.162Z,14.15
2019-02-19T12:08:15.615Z,14.43
2019-02-19T12:11:05.245Z,14.01
2019-02-19T12:13:54.526Z,14.44
2019-02-19T12:16:43.810Z,14.16
2019-02-19T12:19:33.376Z,14.51
2019-02-19T12:22:22.509Z,14.08
2019-02-19T12:25:12.410Z,14.50
2019-02-19T12:28:01.699Z,13.54
2019-02-19T12:30:51.304Z,14.37
2019-02-19T12:33:40.991Z,14.37
2019-02-19T12:36:30.610Z,13.35
2019-02-19T12:39:19.781Z,13.67
2019-02-19T12:42:09.033Z,13.58
2019-02-19T12:44:58.713Z,13.26
2019-02-19T12:47:48.159Z,13.70
2019-02-19T12:50:37.591Z,13.64
2019-02-19T12:53:26.904Z,13.34
2019-02-19T12:56:16.678Z,13.79
2019-02-19T12:59:08.404Z,13.71
2019-02-19T13:01:58.553Z,13.43
2019-02-19T13:04:47.743Z,13.83
2019-02-19T13:07:37.489Z,13.61
2019-02-19T13:10:27.278Z,13.89
2019-02-19T13:13:17.396Z,13.54
2019-02-19T13:16:07.730Z,13.47
2019-02-19T13:19:03.435Z,13.42
2019-02-19T13:21:50.128Z,13.39
2019-02-19T13:24:39.358Z,13.71
2019-02-19T13:27:28.772Z,13.91
2019-02-19T13:30:17.937Z,13.63
2019-02-19T13:33:07.200Z,14.06
2019-02-19T13:35:56.784Z,13.86
2019-02-19T13:38:47.561Z,14.09
2019-02-19T13:41:39.281Z,13.42
2019-02-19T13:44:29.048Z,13.36
2019-02-19T13:47:18.502Z,13.33
2019-02-19T13:50:10.792Z,14.01
2019-02-19T13:53:22.893Z,14.22
2019-02-19T13:56:12.758Z,13.60
2019-02-19T13:59:02.329Z,13.97
2019-02-19T14:01:51.825Z,13.12
2019-02-19T14:04:40.958Z,13.22
2019-02-19T14:07:30.722Z,13.66
2019-02-19T14:10:20.612Z,14.05
2019-02-19T14:13:10.482Z,14.06
2019-02-19T14:16:20.020Z,14.23
2019-02-19T14:19:28.197Z,13.84
2019-02-19T14:22:51.963Z,13.62
2019-02-19T14:25:58.804Z,13.54
2019-02-19T14:29:19.298Z,13.75
2019-02-19T14:32:45.724Z,14.03
2019-02-19T14:36:11.877Z,13.90
2019-02-19T14:39:20.134Z,13.30
2019-02-19T14:42:27.170Z,13.69
2019-02-19T14:45:34.194Z,13.75
2019-02-19T14:48:55.061Z,13.75
2019-02-19T14:52:02.245Z,14.23
2019-02-19T14:55:14.688Z,14.47
2019-02-19T14:58:25.928Z,14.28
2019-02-19T15:01:37.440Z,14.32
2019-02-19T15:04:49.081Z,14.60
2019-02-19T15:08:00.315Z,15.75
2019-02-19T15:11:14.231Z,15.09
2019-02-19T15:14:22.135Z,15.42
2019-02-19T15:17:25.947Z,15.54
2019-02-19T15:20:32.644Z,15.02
2019-02-19T15:23:42.015Z,14.85
2019-02-19T15:26:54.634Z,14.65
2019-02-19T15:30:09.296Z,13.69
2019-02-19T15:33:30.026Z,13.09
2019-02-19T15:36:46.906Z,13.74
2019-02-19T15:39:55.194Z,13.99
2019-02-19T15:43:06.653Z,14.19
2019-02-19T15:46:16.782Z,14.19
2019-02-19T15:49:47.741Z,13.78
2019-02-19T15:52:56.089Z,12.95
2019-02-19T15:56:04.214Z,12.42
2019-02-19T15:59:15.869Z,11.99
2019-02-19T16:02:22.645Z,11.43
2019-02-19T16:05:30.348Z,11.05
2019-02-19T16:08:37.609Z,10.99
2019-02-19T16:11:48.756Z,10.57
2019-02-19T16:14:51.492Z,10.62
2019-02-19T16:18:09.522Z,10.66
2019-02-19T16:21:23.867Z,10.46
2019-02-19T16:24:35.483Z,10.41
2019-02-19T16:27:49.364Z,10.09
2019-02-19T16:30:56.909Z,9.78
2019-02-19T16:34:08.510Z,9.68
2019-02-19T16:37:06.961Z,9.67
2019-02-19T16:40:04.515Z,9.66
2019-02-19T16:43:11.180Z,9.65
2019-02-19T16:46:18.650Z,9.54
2019-02-19T16:49:30.262Z,9.39
2019-02-19T16:52:30.895Z,9.25
2019-02-19T16:55:34.836Z,9.33
2019-02-19T16:58:35.287Z,9.19
2019-02-19T17:01:43.327Z,9.10
2019-02-19T17:04:51.557Z,9.26
2019-02-19T17:08:02.749Z,8.80
2019-02-19T17:11:20.433Z,8.73
2019-02-19T17:14:32.964Z,8.61
2019-02-19T17:17:34.672Z,8.69
2019-02-19T17:20:58.190Z,8.54
2019-02-19T17:24:06.581Z,8.47
2019-02-19T17:27:13.387Z,8.04
2019-02-19T17:30:22.551Z,8.07
2019-02-19T17:33:20.082Z,8.03
2019-02-19T17:36:20.259Z,8.09
2019-02-19T17:39:27.421Z,7.88
2019-02-19T17:42:31.345Z,7.71
2019-02-19T17:45:38.440Z,7.67
2019-02-19T17:48:56.315Z,7.72
2019-02-19T17:52:10.362Z,7.68
2019-02-19T17:58:53.652Z,7.81
2019-02-19T18:01:55.420Z,7.52
2019-02-19T18:04:51.782Z,7.39
2019-02-19T18:07:58.464Z,6.15
2019-02-19T18:11:04.522Z,7.33
2019-02-19T18:14:12.107Z,7.30
2019-02-19T18:17:19.167Z,7.50
2019-02-19T18:20:08.764Z,7.45
2019-02-19T18:22:58.265Z,7.57
2019-02-19T18:25:47.974Z,7.62
2019-02-19T18:28:37.239Z,7.78
2019-02-19T18:31:27.116Z,7.82
2019-02-19T18:34:16.410Z,7.56
2019-02-19T18:37:05.575Z,7.41
2019-02-19T18:39:55.006Z,7.45
2019-02-19T18:42:44.683Z,7.49
2019-02-19T18:45:34.237Z,7.14
2019-02-19T18:48:24.106Z,6.92
2019-02-19T18:51:13.726Z,6.97
2019-02-19T18:54:03.228Z,6.95
2019-02-19T18:56:53.426Z,6.67
2019-02-19T18:59:42.505Z,6.61
2019-02-19T19:02:31.942Z,6.38
2019-02-19T19:05:21.773Z,6.22
2019-02-19T19:08:11.593Z,6.40
2019-02-19T19:11:01.218Z,6.50
2019-02-19T19:13:50.870Z,6.53
2019-02-19T19:16:40.292Z,6.36
2019-02-19T19:19:29.796Z,6.54
2019-02-19T19:22:19.434Z,6.28
2019-02-19T19:25:08.855Z,6.38
2019-02-19T19:27:58.479Z,6.32
2019-02-19T19:30:47.718Z,6.25
2019-02-19T19:33:37.393Z,6.08
2019-02-19T19:36:26.563Z,6.12
2019-02-19T19:39:16.285Z,6.05
2019-02-19T19:42:06.142Z,6.08
2019-02-19T19:44:56.081Z,5.79
2019-02-19T19:47:45.608Z,5.72
2019-02-19T19:50:35.961Z,5.64
2019-02-19T19:53:25.439Z,5.70
2019-02-19T19:56:15.231Z,5.79
2019-02-19T19:59:06.249Z,5.90
2019-02-19T20:01:55.457Z,5.92
2019-02-19T20:04:45.355Z,5.95
2019-02-19T20:07:35.271Z,5.93
2019-02-19T20:10:24.925Z,5.77
2019-02-19T20:13:15.091Z,5.75
2019-02-19T20:16:05.225Z,5.65
2019-02-19T20:18:54.992Z,5.48
2019-02-19T20:21:45.798Z,5.46
2019-02-19T20:24:35.446Z,5.63
2019-02-19T20:27:25.267Z,5.79
2019-02-19T20:30:15.213Z,5.65
2019-02-19T20:33:05.353Z,5.54
2019-02-19T20:35:55.218Z,5.58
2019-02-19T20:38:44.789Z,5.55
2019-02-19T20:41:35.770Z,5.51
2019-02-19T20:44:25.666Z,5.58
2019-02-19T20:47:15.822Z,5.66
2019-02-19T20:50:05.779Z,5.69
2019-02-19T20:52:55.389Z,5.50
2019-02-19T20:55:45.094Z,5.54
2019-02-19T20:58:34.475Z,5.63
2019-02-19T21:01:28.262Z,5.65
2019-02-19T21:04:18.131Z,5.67
2019-02-19T21:07:08.345Z,5.74
2019-02-19T21:09:58.350Z,5.66
2019-02-19T21:12:48.268Z,5.73
2019-02-19T21:15:38.401Z,5.73
2019-02-19T21:18:27.774Z,5.71
2019-02-19T21:21:17.125Z,5.76
2019-02-19T21:24:09.743Z,5.82
2019-02-19T21:27:01.518Z,5.77
2019-02-19T21:29:50.994Z,5.75
2019-02-19T21:32:40.928Z,5.76
2019-02-19T21:35:30.803Z,5.78
2019-02-19T21:38:21.811Z,5.86
2019-02-19T21:41:11.697Z,5.83
2019-02-19T21:44:01.948Z,5.76
2019-02-19T21:46:51.720Z,5.75
2019-02-19T21:49:41.734Z,5.80
2019-02-19T21:52:31.199Z,5.72
2019-02-19T21:55:21.361Z,5.73
2019-02-19T21:58:10.540Z,5.82
2019-02-19T22:01:00.432Z,5.73
2019-02-19T22:03:49.702Z,5.61
2019-02-19T22:06:39.285Z,5.68
2019-02-19T22:09:28.444Z,5.69
2019-02-19T22:12:18.060Z,5.82
2019-02-19T22:15:07.498Z,5.85
2019-02-19T22:17:56.675Z,5.90
2019-02-19T22:20:51.097Z,5.78
2019-02-19T22:23:40.345Z,5.76
2019-02-19T22:26:29.860Z,5.61
2019-02-19T22:29:19.802Z,5.67
2019-02-19T22:32:09.941Z,5.66
2019-02-19T22:34:59.573Z,5.67
2019-02-19T22:37:49.160Z,5.56
2019-02-19T22:40:38.499Z,5.50
2019-02-19T22:47:03.847Z,5.63
2019-02-19T22:49:53.344Z,5.60
2019-02-19T22:52:42.573Z,5.58
2019-02-19T22:55:34.919Z,5.55
2019-02-19T22:58:24.154Z,5.64
2019-02-19T23:01:26.613Z,5.60
2019-02-19T23:04:16.082Z,5.65
2019-02-19T23:07:06.090Z,5.57
2019-02-19T23:09:55.513Z,5.60
2019-02-19T23:12:45.210Z,5.65
2019-02-19T23:15:34.625Z,5.62
2019-02-19T23:18:27.527Z,5.52
2019-02-19T23:21:17.755Z,5.54
2019-02-19T23:24:10.181Z,5.61
2019-02-19T23:26:59.542Z,5.60
2019-02-19T23:29:49.243Z,5.64
2019-02-19T23:32:38.741Z,5.72
2019-02-19T23:35:33.993Z,5.70
2019-02-19T23:38:23.206Z,5.74
2019-02-19T23:41:12.656Z,5.61
2019-02-19T23:44:02.582Z,5.61
2019-02-19T23:46:51.997Z,5.57
2019-02-19T23:49:41.589Z,5.49
2019-02-19T23:52:31.107Z,5.53
2019-02-19T23:55:20.563Z,5.60
2019-02-19T23:58:10.225Z,5.63
